Time;durP1;ratioP1;P1;durP2;ratioP2;P2;SDS_P1;SDS_P2;PMS_P1;PMS_P2;Temp;Humidity;BMP_temperature;BMP_pressure;BME280_temperature;BME280_humidity;BME280_pressure;Samples;Min_cycle;Max_cycle;Signal;HPM_P1;HPM_P2
2023/05/24 00:02:18;;;;;;;13.88;8.25;;;;;;;14.85;100.00;99798.53;4989802;28;20717;-18
2023/05/24 00:04:44;;;;;;;17.33;8.98;;;;;;;14.61;100.00;99792.66;4989895;28;20050;-20
2023/05/24 00:07:10;;;;;;;13.85;8.63;;;;;;;14.61;100.00;99792.66;4990045;28;20046;-19
2023/05/24 00:09:35;;;;;;;18.88;9.02;;;;;;;14.85;100.00;99793.19;4990131;28;20054;-18
2023/05/24 00:12:01;;;;;;;13.95;8.30;;;;;;;15.11;100.00;99790.72;4989805;28;20093;-19
2023/05/24 00:14:26;;;;;;;14.35;7.80;;;;;;;15.07;100.00;99790.41;4989674;28;20464;-19
2023/05/24 00:16:52;;;;;;;19.65;9.90;;;;;;;15.18;100.00;99791.31;4989612;28;20034;-18
2023/05/24 00:19:17;;;;;;;19.85;10.82;;;;;;;15.05;100.00;99781.78;4989508;28;20085;-19
2023/05/24 00:21:46;;;;;;;17.95;9.88;;;;;;;14.95;100.00;99789.75;4989755;28;20077;-19
2023/05/24 00:24:12;;;;;;;16.95;9.93;;;;;;;14.80;100.00;99789.63;4989665;28;20033;-18
2023/05/24 00:26:38;;;;;;;17.75;9.95;;;;;;;14.77;100.00;99787.44;4989660;28;20026;-19
2023/05/24 00:29:04;;;;;;;15.48;9.80;;;;;;;14.80;100.00;99789.63;4989547;28;20041;-18
2023/05/24 00:31:29;;;;;;;14.00;10.07;;;;;;;14.75;100.00;99782.34;4989208;28;20748;-19
2023/05/24 00:33:54;;;;;;;17.30;10.63;;;;;;;14.65;100.00;99782.22;4988908;28;20112;-18
2023/05/24 00:36:20;;;;;;;14.05;10.55;;;;;;;14.56;100.00;99779.16;4989182;28;20118;-17
2023/05/24 00:38:45;;;;;;;17.00;11.05;;;;;;;14.61;100.00;99762.34;4989199;28;20483;-18
2023/05/24 00:41:11;;;;;;;20.10;11.75;;;;;;;14.52;100.00;99763.81;4989012;28;20511;-22
2023/05/24 00:43:36;;;;;;;14.52;11.25;;;;;;;14.53;100.00;99773.50;4989132;28;20030;-19
2023/05/24 00:46:32;;;;;;;20.20;13.77;;;;;;;14.58;100.00;99760.13;4989275;28;20085;-18
2023/05/24 00:48:59;;;;;;;28.70;15.07;;;;;;;14.79;100.00;99772.72;4988883;28;20041;-18
2023/05/24 00:51:26;;;;;;;18.85;11.30;;;;;;;14.75;100.00;99776.97;4988868;28;20046;-21
2023/05/24 00:53:52;;;;;;;16.83;11.70;;;;;;;14.61;100.00;99776.56;4989162;28;20023;-19
2023/05/24 00:56:19;;;;;;;18.20;11.27;;;;;;;14.35;100.00;99767.38;4989056;28;20038;-21
2023/05/24 00:58:45;;;;;;;13.63;10.65;;;;;;;14.40;100.00;99774.66;4988868;28;20121;-18
2023/05/24 01:01:11;;;;;;;19.17;11.18;;;;;;;14.34;100.00;99765.75;4989095;28;20158;-24
2023/05/24 01:03:36;;;;;;;15.88;10.98;;;;;;;14.43;100.00;99779.53;4988973;28;20153;-18
2023/05/24 01:06:05;;;;;;;15.57;10.98;;;;;;;14.94;100.00;99769.34;4988991;28;20059;-19
2023/05/24 01:08:41;;;;;;;14.73;10.85;;;;;;;14.99;100.00;99773.94;4988511;28;20390;-18
2023/05/24 01:11:26;;;;;;;15.50;10.65;;;;;;;15.14;100.00;99787.53;4988949;28;20036;-19
2023/05/24 01:14:21;;;;;;;13.38;10.63;;;;;;;15.08;100.00;99780.50;4988540;28;20600;-18
2023/05/24 01:17:02;;;;;;;16.65;11.07;;;;;;;14.96;100.00;99777.16;4988494;28;20152;-19
2023/05/24 01:19:42;;;;;;;17.15;11.65;;;;;;;14.91;100.00;99780.59;4988368;28;20042;-18
2023/05/24 01:22:12;;;;;;;19.02;12.02;;;;;;;14.92;100.00;99789.47;4988515;28;20424;-18
2023/05/24 01:25:03;;;;;;;17.10;11.48;;;;;;;15.02;100.00;99797.63;4988746;28;20109;-19
2023/05/24 01:27:32;;;;;;;15.52;12.07;;;;;;;14.64;100.00;99785.97;4988282;28;20018;-19
2023/05/24 01:29:59;;;;;;;15.88;10.50;;;;;;;14.31;100.00;99798.44;4988275;28;20034;-19
2023/05/24 01:32:24;;;;;;;14.27;9.70;;;;;;;14.00;100.00;99792.69;4988119;28;20026;-19
2023/05/24 01:34:50;;;;;;;13.65;10.02;;;;;;;13.99;100.00;99799.09;4988129;28;20037;-19
2023/05/24 01:37:15;;;;;;;14.60;10.90;;;;;;;14.42;100.00;99810.91;4970761;28;20034;-19
2023/05/24 01:39:41;;;;;;;13.45;10.70;;;;;;;14.68;100.00;99802.38;4988233;28;20497;-19
2023/05/24 01:42:30;;;;;;;16.73;10.98;;;;;;;14.69;100.00;99799.44;4988094;28;20496;-19
2023/05/24 01:45:22;;;;;;;14.10;11.10;;;;;;;14.76;100.00;99794.69;4987396;28;20038;-19
2023/05/24 01:48:18;;;;;;;18.65;11.45;;;;;;;14.76;100.00;99805.41;4988187;28;20033;-19
2023/05/24 01:51:10;;;;;;;18.48;11.50;;;;;;;14.14;100.00;99811.91;4987895;28;20045;-17
2023/05/24 01:53:43;;;;;;;20.85;12.15;;;;;;;14.08;100.00;99794.16;4988124;28;20030;-18
2023/05/24 01:56:10;;;;;;;18.73;12.00;;;;;;;14.28;100.00;99812.34;4988320;28;20034;-20
2023/05/24 01:58:39;;;;;;;16.50;12.25;;;;;;;14.29;100.00;99799.75;4987786;28;20113;-18
2023/05/24 02:01:05;;;;;;;17.88;12.88;;;;;;;14.36;100.00;99801.19;4987798;28;20022;-19
2023/05/24 02:03:31;;;;;;;21.50;14.90;;;;;;;14.32;100.00;99793.88;4987717;28;20019;-18
2023/05/24 02:05:56;;;;;;;23.65;15.05;;;;;;;14.21;100.00;99790.28;4987730;28;20026;-16
2023/05/24 02:08:22;;;;;;;20.48;14.32;;;;;;;14.29;100.00;99795.19;4987803;28;20102;-18
2023/05/24 02:10:47;;;;;;;21.20;12.68;;;;;;;14.10;100.00;99796.56;4987596;28;20403;-18
2023/05/24 02:13:15;;;;;;;22.33;13.02;;;;;;;13.90;100.00;99786.41;4987684;28;20436;-19
2023/05/24 02:15:40;;;;;;;19.30;13.70;;;;;;;14.09;100.00;99803.78;4987604;28;20039;-23
2023/05/24 02:18:06;;;;;;;19.45;14.23;;;;;;;14.12;100.00;99799.81;4987465;28;20042;-18
2023/05/24 02:20:35;;;;;;;18.85;14.43;;;;;;;14.15;100.00;99799.31;4987437;28;20037;-18
2023/05/24 02:23:03;;;;;;;21.60;13.73;;;;;;;14.13;100.00;99799.56;4987511;28;20579;-18
2023/05/24 02:25:28;;;;;;;19.70;12.90;;;;;;;14.09;100.00;99806.47;4987400;28;20134;-25
2023/05/24 02:27:54;;;;;;;20.50;14.20;;;;;;;14.29;100.00;99805.94;4987434;28;20735;-21
2023/05/24 02:30:19;;;;;;;17.10;13.38;;;;;;;14.35;100.00;99804.94;4987520;28;20093;-20
2023/05/24 02:32:45;;;;;;;20.40;13.10;;;;;;;14.18;100.00;99801.47;4987350;28;20088;-20
2023/05/24 02:35:11;;;;;;;18.02;12.85;;;;;;;13.93;100.00;99785.88;4987606;28;20034;-19
2023/05/24 02:37:37;;;;;;;23.20;12.48;;;;;;;13.83;100.00;99803.47;4987177;28;20030;-19
2023/05/24 02:40:03;;;;;;;17.75;11.90;;;;;;;13.87;100.00;99809.13;4987061;28;20038;-19
2023/05/24 02:42:28;;;;;;;18.08;12.38;;;;;;;13.64;100.00;99808.25;4987089;28;20069;-19
2023/05/24 02:44:54;;;;;;;18.70;13.00;;;;;;;13.56;100.00;99811.34;4987412;28;20031;-18
2023/05/24 02:47:19;;;;;;;19.45;12.60;;;;;;;13.35;100.00;99825.50;4987044;28;20030;-18
2023/05/24 02:49:44;;;;;;;17.70;11.18;;;;;;;13.23;100.00;99826.34;4986989;28;20026;-20
2023/05/24 02:52:10;;;;;;;16.63;11.23;;;;;;;12.90;100.00;99829.78;4987125;28;20030;-18
2023/05/24 02:54:35;;;;;;;19.77;11.82;;;;;;;12.97;100.00;99816.25;4987461;28;20564;-18
2023/05/24 02:57:01;;;;;;;18.52;11.75;;;;;;;12.99;100.00;99830.19;4990995;28;20087;-18
2023/05/24 02:59:27;;;;;;;16.90;12.35;;;;;;;13.33;100.00;99819.56;4991130;28;20034;-19
2023/05/24 03:01:52;;;;;;;18.90;12.18;;;;;;;12.86;100.00;99824.09;4991140;28;20084;-18
2023/05/24 03:04:18;;;;;;;17.50;11.20;;;;;;;12.90;100.00;99818.28;4990980;28;20026;-19
2023/05/24 03:06:43;;;;;;;15.98;10.88;;;;;;;12.81;100.00;99818.66;4991125;28;20061;-19
2023/05/24 03:09:09;;;;;;;16.77;10.50;;;;;;;12.41;100.00;99824.84;4990973;28;20026;-18
2023/05/24 03:11:34;;;;;;;15.80;10.60;;;;;;;12.55;100.00;99821.91;4990774;28;20018;-19
2023/05/24 03:13:59;;;;;;;13.35;9.55;;;;;;;12.42;100.00;99820.28;4990901;28;20023;-18
2023/05/24 03:16:25;;;;;;;15.55;9.70;;;;;;;12.62;100.00;99826.03;4990822;28;20030;-18
2023/05/24 03:18:50;;;;;;;15.15;10.65;;;;;;;13.17;100.00;99810.44;4990525;28;20034;-18
2023/05/24 03:21:19;;;;;;;18.17;11.73;;;;;;;13.24;100.00;99817.25;4990750;28;20030;-19
2023/05/24 03:23:44;;;;;;;20.65;12.15;;;;;;;13.49;100.00;99808.06;4990644;28;20038;-20
2023/05/24 03:26:11;;;;;;;15.20;11.73;;;;;;;13.57;100.00;99815.69;4990874;28;20069;-18
2023/05/24 03:28:37;;;;;;;14.95;10.98;;;;;;;13.53;100.00;99819.91;4990523;28;20033;-18
2023/05/24 03:31:03;;;;;;;16.45;10.90;;;;;;;13.68;100.00;99810.47;4990560;28;20022;-18
2023/05/24 03:33:28;;;;;;;16.45;11.43;;;;;;;13.48;100.00;99811.75;4990385;28;20044;-18
2023/05/24 03:35:54;;;;;;;14.63;10.50;;;;;;;13.53;100.00;99819.91;4990653;28;20087;-18
2023/05/24 03:38:19;;;;;;;17.10;11.25;;;;;;;13.33;100.00;99816.91;4990200;28;20158;-18
2023/05/24 03:40:45;;;;;;;17.83;11.98;;;;;;;13.50;100.00;99808.84;4990452;28;20092;-20
2023/05/24 03:43:11;;;;;;;15.70;11.50;;;;;;;13.75;100.00;99816.44;4990569;28;20165;-18
2023/05/24 03:45:36;;;;;;;19.58;12.07;;;;;;;14.10;100.00;99823.38;4990514;28;20042;-18
2023/05/24 03:48:02;;;;;;;19.05;11.55;;;;;;;13.83;100.00;99816.03;4989946;28;20092;-18
2023/05/24 03:50:27;;;;;;;17.98;11.52;;;;;;;13.85;100.00;99817.44;4990397;28;20030;-18
2023/05/24 03:52:52;;;;;;;18.00;10.90;;;;;;;13.69;100.00;99822.78;4990229;28;20436;-20
2023/05/24 03:55:18;;;;;;;18.73;11.13;;;;;;;13.52;100.00;99825.50;4990035;28;20623;-20
2023/05/24 03:57:43;;;;;;;17.55;10.68;;;;;;;13.24;100.00;99811.91;4990492;28;20190;-24
2023/05/24 04:00:09;;;;;;;17.98;10.70;;;;;;;13.61;100.00;99824.84;4990164;28;20117;-19
2023/05/24 04:02:38;;;;;;;17.00;11.77;;;;;;;13.55;100.00;99833.06;4990121;28;20022;-19
2023/05/24 04:05:10;;;;;;;17.98;11.55;;;;;;;13.29;100.00;99829.13;4990004;28;20054;-18
2023/05/24 04:07:36;;;;;;;17.40;9.93;;;;;;;13.46;100.00;99840.66;4989177;28;20107;-18
2023/05/24 04:10:03;;;;;;;13.75;10.93;;;;;;;14.04;100.00;99836.72;4989607;28;20026;-18
2023/05/24 04:12:30;;;;;;;15.40;11.38;;;;;;;13.96;100.00;99837.16;4989999;28;20030;-18
2023/05/24 04:14:55;;;;;;;17.90;12.25;;;;;;;14.00;100.00;99843.63;4989858;28;20038;-19
2023/05/24 04:17:23;;;;;;;19.30;13.52;;;;;;;14.19;100.00;99841.47;4989558;28;20033;-18
2023/05/24 04:19:50;;;;;;;22.33;13.10;;;;;;;14.22;100.00;99851.72;4989609;28;20177;-19
2023/05/24 04:22:17;;;;;;;17.15;12.00;;;;;;;14.34;100.00;99851.59;4989719;28;20045;-18
2023/05/24 04:24:43;;;;;;;20.93;14.20;;;;;;;14.50;100.00;99854.47;4989645;28;20069;-19
2023/05/24 04:27:09;;;;;;;20.20;13.07;;;;;;;14.58;100.00;99851.38;4989259;28;20038;-19
2023/05/24 04:29:35;;;;;;;21.27;13.82;;;;;;;14.47;100.00;99856.59;4989493;28;20416;-18
2023/05/24 04:32:00;;;;;;;19.55;12.43;;;;;;;14.49;100.00;99853.66;4989458;28;20026;-19
2023/05/24 04:34:28;;;;;;;17.58;11.90;;;;;;;14.58;100.00;99846.81;4989529;28;20029;-18
2023/05/24 04:36:54;;;;;;;15.68;12.05;;;;;;;14.97;100.00;99859.31;4989328;28;20034;-22
2023/05/24 04:39:20;;;;;;;16.10;11.40;;;;;;;15.01;100.00;99860.44;4989359;28;20034;-18
2023/05/24 04:41:49;;;;;;;15.25;11.80;;;;;;;15.32;100.00;99858.03;4989141;28;20473;-19
2023/05/24 04:44:15;;;;;;;13.95;10.30;;;;;;;15.41;100.00;99869.97;4989441;28;20026;-21
2023/05/24 04:46:41;;;;;;;15.80;10.63;;;;;;;15.54;100.00;99853.38;4989205;28;20124;-18
2023/05/24 04:49:07;;;;;;;16.38;10.70;;;;;;;15.59;100.00;99849.94;4989271;28;20019;-19
2023/05/24 04:51:33;;;;;;;12.52;9.95;;;;;;;15.77;100.00;99867.56;4988952;28;20026;-19
2023/05/24 04:54:00;;;;;;;12.85;10.02;;;;;;;15.76;100.00;99869.47;4988889;28;20033;-20
2023/05/24 04:56:25;;;;;;;11.88;9.52;;;;;;;15.94;100.00;99862.06;4988847;28;20096;-18
2023/05/24 04:58:51;;;;;;;11.15;8.73;;;;;;;16.13;100.00;99867.81;4988759;28;20027;-19
2023/05/24 05:01:17;;;;;;;12.45;8.90;;;;;;;16.19;100.00;99856.81;4989037;28;20453;-19
2023/05/24 05:03:44;;;;;;;12.43;9.05;;;;;;;16.30;100.00;99862.25;4988829;28;20104;-27
2023/05/24 05:06:10;;;;;;;10.65;8.00;;;;;;;16.45;100.00;99865.81;4988841;28;20595;-20
2023/05/24 05:08:35;;;;;;;13.23;8.10;;;;;;;16.65;100.00;99872.34;4988553;28;20114;-18
2023/05/24 05:11:01;;;;;;;11.05;8.25;;;;;;;16.81;100.00;99881.31;4988579;28;20085;-19
2023/05/24 05:13:27;;;;;;;11.38;8.20;;;;;;;16.81;100.00;99875.94;4988681;28;20077;-18
2023/05/24 05:15:52;;;;;;;13.35;7.82;;;;;;;16.89;100.00;99878.13;4988334;28;20034;-19
2023/05/24 05:18:18;;;;;;;10.05;7.75;;;;;;;16.90;100.00;99873.53;4987593;28;20056;-18
2023/05/24 05:20:43;;;;;;;10.73;6.85;;;;;;;16.67;100.00;99865.66;4988547;28;20030;-19
2023/05/24 05:23:08;;;;;;;10.88;8.18;;;;;;;16.94;100.00;99869.22;4988563;28;20089;-19
2023/05/24 05:25:34;;;;;;;10.40;7.72;;;;;;;16.96;100.00;99872.47;4988421;28;20081;-18
2023/05/24 05:28:00;;;;;;;11.23;7.72;;;;;;;17.39;100.00;99870.41;4987999;28;20105;-18
2023/05/24 05:30:25;;;;;;;11.18;7.80;;;;;;;17.48;100.00;99879.56;4988426;28;20034;-19
2023/05/24 05:32:51;;;;;;;10.70;8.25;;;;;;;17.55;100.00;99877.44;4988286;28;20022;-21
2023/05/24 05:35:16;;;;;;;11.07;7.07;;;;;;;17.51;100.00;99879.03;4988376;28;20420;-19
2023/05/24 05:37:41;;;;;;;9.65;7.03;;;;;;;17.64;99.92;99891.97;4988149;28;20501;-19
2023/05/24 05:40:07;;;;;;;13.20;6.97;;;;;;;17.89;100.00;99876.88;4987969;28;20121;-19
2023/05/24 05:42:32;;;;;;;10.50;7.18;;;;;;;18.06;99.57;99881.97;4988335;28;20030;-19
2023/05/24 05:44:58;;;;;;;10.00;7.00;;;;;;;18.20;100.00;99884.91;4988249;28;20445;-19
2023/05/24 05:47:23;;;;;;;11.57;7.28;;;;;;;18.13;100.00;99873.59;4988007;28;20033;-25
2023/05/24 05:49:49;;;;;;;10.38;7.03;;;;;;;18.58;95.09;99890.75;4987433;28;20028;-22
2023/05/24 05:52:14;;;;;;;11.63;7.80;;;;;;;18.47;98.88;99885.38;4987997;28;20465;-19
2023/05/24 05:54:40;;;;;;;11.30;7.40;;;;;;;18.51;98.92;99890.22;4987760;28;20449;-20
2023/05/24 05:57:07;;;;;;;10.38;6.93;;;;;;;18.86;92.76;99892.81;4987875;28;20129;-18
2023/05/24 05:59:34;;;;;;;9.82;7.55;;;;;;;18.84;92.97;99899.59;4987393;28;20401;-19
2023/05/24 06:02:00;;;;;;;10.25;7.45;;;;;;;18.77;96.07;99905.22;4988032;28;20022;-18
2023/05/24 06:04:25;;;;;;;11.65;7.78;;;;;;;18.93;94.43;99891.69;4987640;28;20041;-20
2023/05/24 06:06:51;;;;;;;9.80;8.23;;;;;;;19.03;96.28;99895.13;4987814;28;20030;-18
2023/05/24 06:09:16;;;;;;;10.10;7.07;;;;;;;19.07;92.96;99898.91;4987479;28;20034;-19
2023/05/24 06:11:43;;;;;;;10.38;7.22;;;;;;;19.18;91.65;99909.66;4987722;28;20038;-18
2023/05/24 06:14:11;;;;;;;13.93;7.10;;;;;;;19.56;92.92;99915.34;4987829;28;20031;-19
2023/05/24 06:16:40;;;;;;;11.23;7.03;;;;;;;19.42;91.30;99909.78;4987028;28;20029;-20
2023/05/24 06:19:06;;;;;;;10.13;6.80;;;;;;;19.27;89.49;99908.78;4987428;28;20149;-19
2023/05/24 06:21:32;;;;;;;10.38;7.22;;;;;;;19.37;91.71;99917.91;4987440;28;20037;-18
2023/05/24 06:23:58;;;;;;;10.32;7.07;;;;;;;19.36;91.44;99913.59;4987652;28;20026;-19
2023/05/24 06:26:25;;;;;;;8.60;6.22;;;;;;;19.47;88.38;99901.59;4988284;28;20118;-20
2023/05/24 06:28:51;;;;;;;9.23;6.60;;;;;;;19.38;89.85;99914.91;5005949;28;20095;-19
2023/05/24 06:31:17;;;;;;;11.00;7.55;;;;;;;19.56;92.48;99910.75;5006125;28;20026;-23
2023/05/24 06:33:43;;;;;;;9.73;6.22;;;;;;;19.87;84.69;99910.53;5005838;28;20493;-18
2023/05/24 06:36:08;;;;;;;9.75;6.28;;;;;;;19.90;88.13;99915.38;5006197;28;20034;-19
2023/05/24 06:38:35;;;;;;;12.45;6.93;;;;;;;19.84;89.76;99913.81;5005337;28;20107;-19
2023/05/24 06:41:00;;;;;;;9.65;6.63;;;;;;;20.04;88.89;99910.91;5005514;28;20061;-18
2023/05/24 06:43:27;;;;;;;8.52;6.95;;;;;;;20.24;89.26;99904.47;5006083;28;20048;-19
2023/05/24 06:45:53;;;;;;;8.82;7.28;;;;;;;20.53;88.57;99909.00;5005946;28;20037;-18
2023/05/24 06:48:18;;;;;;;10.40;7.10;;;;;;;20.40;90.41;99910.53;5006071;28;20045;-18
2023/05/24 06:50:44;;;;;;;11.82;7.07;;;;;;;20.46;86.65;99908.56;5006318;28;20041;-18
2023/05/24 06:53:09;;;;;;;9.80;6.53;;;;;;;20.46;85.40;99906.66;5006455;28;20073;-19
2023/05/24 06:55:35;;;;;;;8.23;6.75;;;;;;;20.78;83.39;99905.25;5006921;28;20030;-19
2023/05/24 06:58:01;;;;;;;10.50;6.90;;;;;;;20.87;84.27;99895.34;5006128;28;20088;-17
2023/05/24 07:00:26;;;;;;;12.30;7.20;;;;;;;20.45;86.05;99896.94;5006675;28;20066;-19
2023/05/24 07:02:52;;;;;;;10.57;7.55;;;;;;;20.35;86.00;99880.81;5005993;28;20171;-20
2023/05/24 07:05:17;;;;;;;10.88;7.65;;;;;;;20.57;87.12;99901.94;5005148;28;20033;-20
2023/05/24 07:07:43;;;;;;;10.82;7.05;;;;;;;20.84;86.87;99895.13;5006091;28;20515;-19
2023/05/24 07:10:10;;;;;;;10.50;6.90;;;;;;;20.96;89.10;99886.56;5005997;28;20030;-19
2023/05/24 07:12:37;;;;;;;10.20;7.07;;;;;;;21.22;84.81;99900.56;5005993;28;20683;-18
2023/05/24 07:15:06;;;;;;;9.98;7.43;;;;;;;21.41;83.90;99901.38;5004601;28;20022;-19
2023/05/24 07:17:31;;;;;;;9.02;6.63;;;;;;;21.60;85.47;99892.44;5005333;28;20032;-20
2023/05/24 07:19:57;;;;;;;9.23;6.85;;;;;;;21.47;81.10;99899.38;5004752;28;20034;-20
2023/05/24 07:22:24;;;;;;;11.88;6.63;;;;;;;21.42;80.99;99894.03;5005146;28;20040;-18
2023/05/24 07:24:50;;;;;;;9.27;6.32;;;;;;;21.71;74.63;99906.63;5005230;28;20054;-18
2023/05/24 07:27:15;;;;;;;8.20;6.45;;;;;;;21.81;73.28;99904.53;5004613;28;20104;-19
2023/05/24 07:29:41;;;;;;;10.55;6.93;;;;;;;21.98;74.70;99906.69;5005807;28;20034;-21
2023/05/24 07:32:07;;;;;;;9.45;5.93;;;;;;;22.10;74.64;99899.97;5005962;28;20033;-18
2023/05/24 07:34:33;;;;;;;10.20;6.40;;;;;;;22.12;73.70;99905.91;5005853;28;20496;-18
2023/05/24 07:37:00;;;;;;;8.27;6.15;;;;;;;21.82;72.52;99889.03;5006160;28;20105;-19
2023/05/24 07:39:26;;;;;;;9.05;6.70;;;;;;;21.82;74.58;99897.19;5006356;28;20032;-17
2023/05/24 07:41:54;;;;;;;10.80;6.70;;;;;;;21.98;75.11;99890.38;5014757;28;20042;-18
2023/05/24 07:44:20;;;;;;;9.00;5.95;;;;;;;22.12;75.71;99895.03;5026371;28;20033;-19
2023/05/24 07:46:46;;;;;;;8.80;5.90;;;;;;;22.21;70.61;99894.06;5022276;28;20030;-18
2023/05/24 07:49:11;;;;;;;9.68;5.43;;;;;;;22.37;73.48;99897.31;5025169;28;20440;-19
2023/05/24 07:51:37;;;;;;;9.10;6.28;;;;;;;22.64;70.46;99892.97;5023235;28;20026;-20
2023/05/24 07:54:03;;;;;;;11.60;5.40;;;;;;;22.78;74.49;99895.66;5023883;28;20134;-20
2023/05/24 07:56:29;;;;;;;7.78;5.50;;;;;;;23.00;70.19;99892.19;5025769;28;20071;-19
2023/05/24 07:59:02;;;;;;;8.82;5.97;;;;;;;22.99;72.14;99891.41;5029319;28;20037;-19
2023/05/24 08:01:27;;;;;;;8.50;5.57;;;;;;;23.29;68.97;99893.75;5029159;28;20056;-19
2023/05/24 08:03:53;;;;;;;10.30;5.72;;;;;;;23.35;68.00;99892.53;5029744;28;20431;-19
2023/05/24 08:06:18;;;;;;;8.50;5.85;;;;;;;23.45;66.98;99905.88;5029112;28;20521;-21
2023/05/24 08:08:44;;;;;;;8.65;5.93;;;;;;;23.47;70.89;99899.00;5029359;28;20037;-19
2023/05/24 08:11:10;;;;;;;11.18;5.85;;;;;;;23.58;69.06;99891.41;5029020;28;20025;-19
2023/05/24 08:13:36;;;;;;;7.85;5.30;;;;;;;23.51;70.22;99885.59;5029101;28;20119;-19
2023/05/24 08:16:01;;;;;;;8.65;6.07;;;;;;;23.61;67.24;99896.22;5029088;28;20029;-19
2023/05/24 08:18:27;;;;;;;7.22;6.22;;;;;;;23.88;64.45;99894.50;5028974;28;20034;-19
2023/05/24 08:20:52;;;;;;;8.35;5.95;;;;;;;23.62;69.45;99892.41;5028615;28;20030;-17
2023/05/24 08:23:17;;;;;;;8.95;6.03;;;;;;;23.86;69.96;99891.28;5029102;28;20025;-26
2023/05/24 08:25:43;;;;;;;7.82;5.20;;;;;;;24.22;63.03;99888.41;5028739;28;20025;-19
2023/05/24 08:28:09;;;;;;;8.55;5.63;;;;;;;24.33;61.30;99888.94;5028973;28;20112;-20
2023/05/24 08:30:35;;;;;;;9.10;5.78;;;;;;;24.27;62.06;99896.47;5028917;28;20029;-19
2023/05/24 08:33:01;;;;;;;8.20;5.00;;;;;;;24.23;59.13;99889.22;5028624;28;20041;-18
2023/05/24 08:35:27;;;;;;;7.60;5.45;;;;;;;24.30;62.66;99886.06;5028991;28;20922;-18
2023/05/24 08:37:52;;;;;;;8.68;5.05;;;;;;;24.52;61.06;99885.16;5028910;28;20025;-19
2023/05/24 08:40:18;;;;;;;9.32;5.05;;;;;;;24.74;55.10;99887.00;5028661;28;20115;-22
2023/05/24 08:42:44;;;;;;;7.80;5.57;;;;;;;24.82;58.42;99889.72;5028584;28;20032;-19
2023/05/24 08:45:11;;;;;;;9.35;5.97;;;;;;;25.25;56.50;99896.38;5028953;28;20032;-19
2023/05/24 08:47:37;;;;;;;8.27;6.35;;;;;;;25.54;56.51;99892.16;5028658;28;20766;-19
2023/05/24 08:50:05;;;;;;;8.32;5.63;;;;;;;25.48;55.51;99894.28;5028497;28;20030;-19
2023/05/24 08:52:31;;;;;;;8.50;5.28;;;;;;;25.21;55.84;99890.78;5028179;28;20073;-19
2023/05/24 08:55:00;;;;;;;7.25;5.25;;;;;;;25.21;57.69;99896.22;5028451;28;20029;-19
2023/05/24 08:57:26;;;;;;;7.65;5.40;;;;;;;25.26;54.92;99898.78;5028338;28;20463;-19
2023/05/24 08:59:54;;;;;;;10.80;5.40;;;;;;;25.41;60.55;99899.41;5028251;28;20033;-21
2023/05/24 09:02:21;;;;;;;7.53;5.05;;;;;;;26.00;54.14;99905.13;5028188;28;20186;-20
2023/05/24 09:04:48;;;;;;;6.57;5.10;;;;;;;26.30;51.95;99886.03;5028550;28;20017;-19
2023/05/24 09:07:18;;;;;;;7.03;5.10;;;;;;;26.23;53.33;99885.75;5028396;28;20064;-18
2023/05/24 09:09:48;;;;;;;6.07;4.70;;;;;;;26.24;52.39;99882.69;5028134;28;20037;-18
2023/05/24 09:12:16;;;;;;;8.68;3.92;;;;;;;26.00;49.26;99907.84;5027971;28;20033;-19
2023/05/24 09:14:45;;;;;;;6.43;4.35;;;;;;;25.88;47.71;99902.22;5028044;28;20706;-20
2023/05/24 09:17:14;;;;;;;7.47;4.60;;;;;;;26.11;47.27;99894.63;5028315;28;20025;-19
2023/05/24 09:19:43;;;;;;;7.00;4.40;;;;;;;26.42;45.94;99888.88;5027964;28;20137;-19
2023/05/24 09:22:09;;;;;;;6.50;4.13;;;;;;;26.23;49.78;99891.19;5027796;28;20025;-19
2023/05/24 09:24:42;;;;;;;6.97;4.05;;;;;;;26.53;48.30;99883.81;5027846;28;20029;-19
2023/05/24 09:27:09;;;;;;;7.25;3.78;;;;;;;26.39;43.14;99889.53;5027735;28;20732;-19
2023/05/24 09:29:35;;;;;;;5.40;3.40;;;;;;;26.60;41.45;99899.72;5027801;28;20029;-17
2023/05/24 09:32:03;;;;;;;5.03;3.60;;;;;;;26.81;42.16;99884.16;5027871;28;20030;-18
2023/05/24 09:34:28;;;;;;;6.25;3.95;;;;;;;26.81;43.52;99889.63;5028004;28;20535;-18
2023/05/24 09:36:54;;;;;;;6.75;3.47;;;;;;;26.46;43.03;99892.56;5027715;28;20037;-18
2023/05/24 09:39:20;;;;;;;6.80;3.80;;;;;;;26.62;42.87;99886.53;5027823;28;20064;-20
2023/05/24 09:41:55;;;;;;;6.18;3.55;;;;;;;26.74;46.84;99874.88;5027130;28;20543;-20
2023/05/24 09:44:27;;;;;;;4.97;3.17;;;;;;;26.84;40.70;99885.44;5027980;28;20212;-20
2023/05/24 09:46:53;;;;;;;4.90;3.55;;;;;;;27.49;38.92;99891.38;5028266;28;20392;-19
2023/05/24 09:49:22;;;;;;;4.70;3.10;;;;;;;27.72;40.86;99882.75;5010737;28;20057;-18
2023/05/24 09:51:47;;;;;;;8.90;3.33;;;;;;;27.94;36.43;99890.59;5028918;28;20431;-19
2023/05/24 09:54:14;;;;;;;6.20;3.25;;;;;;;27.75;37.41;99890.31;5028668;28;20518;-19
2023/05/24 09:56:40;;;;;;;9.68;3.95;;;;;;;27.73;39.71;99889.88;5028537;28;20038;-19
2023/05/24 09:59:09;;;;;;;5.55;3.38;;;;;;;27.72;38.73;99889.03;5028417;28;20040;-18
2023/05/24 10:01:35;;;;;;;5.50;3.42;;;;;;;27.83;37.85;99878.47;5028685;28;20028;-18
2023/05/24 10:04:01;;;;;;;6.53;3.55;;;;;;;28.08;37.34;99875.78;5027926;28;20428;-20
2023/05/24 10:06:33;;;;;;;7.10;3.58;;;;;;;28.70;38.02;99876.59;5028249;28;20103;-18
2023/05/24 10:08:59;;;;;;;6.30;3.42;;;;;;;28.67;38.68;99878.09;5028701;28;20599;-19
2023/05/24 10:11:25;;;;;;;5.45;3.17;;;;;;;28.59;38.56;99881.75;5028371;28;20120;-19
2023/05/24 10:13:51;;;;;;;6.32;3.40;;;;;;;28.40;37.71;99880.38;5028429;28;20029;-19
2023/05/24 10:16:16;;;;;;;4.78;3.50;;;;;;;28.38;39.19;99877.16;5027970;28;20055;-17
2023/05/24 10:18:42;;;;;;;6.22;3.70;;;;;;;28.41;38.23;99875.69;5027636;28;20026;-20
2023/05/24 10:21:09;;;;;;;6.25;3.60;;;;;;;28.37;36.37;99877.50;5027804;28;20040;-18
2023/05/24 10:23:38;;;;;;;;;;;;;;;28.21;37.42;99858.19;5028240;28;20066;-19
2023/05/24 10:26:06;;;;;;;8.80;3.80;;;;;;;28.77;37.45;99874.88;5027867;28;19987;-17
2023/05/24 10:28:35;;;;;;;4.85;3.45;;;;;;;28.89;36.04;99881.47;5027766;28;20032;-19
2023/05/24 10:31:14;;;;;;;6.80;3.53;;;;;;;29.30;34.70;99876.78;5027339;28;20029;-19
2023/05/24 10:33:43;;;;;;;7.65;3.80;;;;;;;28.94;37.86;99864.75;5027340;28;20040;-19
2023/05/24 10:36:12;;;;;;;5.35;3.17;;;;;;;29.56;37.50;99863.38;5027624;28;20103;-20
2023/05/24 10:38:39;;;;;;;4.90;3.33;;;;;;;29.50;34.46;99870.28;5027672;28;20029;-19
2023/05/24 10:41:07;;;;;;;7.53;3.20;;;;;;;29.92;36.03;99863.53;5027396;28;20041;-19
2023/05/24 10:43:36;;;;;;;5.85;3.47;;;;;;;30.15;34.84;99863.72;5027564;28;20406;-19
2023/05/24 10:46:03;;;;;;;5.50;3.25;;;;;;;30.06;34.63;99855.66;5027373;28;20030;-19
2023/05/24 10:48:28;;;;;;;5.30;3.25;;;;;;;30.11;32.39;99855.38;5027638;28;20037;-19
2023/05/24 10:50:54;;;;;;;5.18;3.20;;;;;;;30.34;34.73;99847.31;5027467;28;20034;-20
2023/05/24 10:53:26;;;;;;;5.65;3.50;;;;;;;29.61;35.20;99843.09;5027574;28;20029;-19
2023/05/24 10:55:58;;;;;;;6.22;3.40;;;;;;;28.70;37.02;99838.16;5027535;28;20136;-19
2023/05/24 10:58:33;;;;;;;5.50;3.50;;;;;;;28.62;36.68;99842.63;5027517;28;20064;-19
2023/05/24 11:00:58;;;;;;;9.25;3.53;;;;;;;28.44;36.90;99831.91;5027093;28;20527;-19
2023/05/24 11:03:24;;;;;;;6.53;3.78;;;;;;;29.08;36.10;99831.44;5027749;28;20523;-22
2023/05/24 11:05:52;;;;;;;5.57;3.28;;;;;;;29.14;34.20;99835.56;5027168;28;20433;-20
2023/05/24 11:08:24;;;;;;;7.60;3.85;;;;;;;29.09;35.48;99827.53;5027492;28;20029;-18
2023/05/24 11:11:02;;;;;;;5.38;3.40;;;;;;;28.48;36.33;99818.28;5027431;28;20036;-19
2023/05/24 11:13:29;;;;;;;4.53;3.40;;;;;;;28.59;37.45;99811.22;5027683;28;20164;-19
2023/05/24 11:15:55;;;;;;;6.13;3.53;;;;;;;28.58;36.36;99825.28;5028024;28;20033;-19
2023/05/24 11:18:23;;;;;;;6.13;3.60;;;;;;;28.33;38.05;99829.97;5031435;28;20052;-19
2023/05/24 11:20:51;;;;;;;5.80;3.42;;;;;;;28.29;36.71;99821.63;5031218;28;20186;-19
2023/05/24 11:23:16;;;;;;;7.75;3.47;;;;;;;28.09;36.74;99823.34;5013339;28;20140;-19